sensor_id;sensor_type;location;lat;lon;timestamp;P1;durP1;ratioP1;P2;durP2;ratioP2
27225;SDS011;14732;51.074;3.788;2022-09-24T00:01:13;29.83;;;17.17;;
27225;SDS011;14732;51.074;3.788;2022-09-24T00:03:44;29.17;;;17.15;;
27225;SDS011;14732;51.074;3.788;2022-09-24T00:06:17;26.88;;;16.42;;
27225;SDS011;14732;51.074;3.788;2022-09-24T00:08:44;31.40;;;18.50;;
27225;SDS011;14732;51.074;3.788;2022-09-24T00:11:11;33.63;;;18.25;;
27225;SDS011;14732;51.074;3.788;2022-09-24T00:13:37;29.05;;;18.25;;
27225;SDS011;14732;51.074;3.788;2022-09-24T00:16:05;30.58;;;18.20;;
27225;SDS011;14732;51.074;3.788;2022-09-24T00:18:34;32.58;;;17.83;;
27225;SDS011;14732;51.074;3.788;2022-09-24T00:20:59;28.27;;;17.90;;
27225;SDS011;14732;51.074;3.788;2022-09-24T00:23:25;31.05;;;17.70;;
27225;SDS011;14732;51.074;3.788;2022-09-24T00:25:51;26.73;;;18.00;;
27225;SDS011;14732;51.074;3.788;2022-09-24T00:28:35;29.90;;;18.60;;
27225;SDS011;14732;51.074;3.788;2022-09-24T00:31:05;27.10;;;17.65;;
27225;SDS011;14732;51.074;3.788;2022-09-24T00:33:32;27.67;;;16.35;;
27225;SDS011;14732;51.074;3.788;2022-09-24T00:35:59;27.58;;;16.52;;
27225;SDS011;14732;51.074;3.788;2022-09-24T00:38:27;26.67;;;16.05;;
27225;SDS011;14732;51.074;3.788;2022-09-24T00:40:53;25.15;;;16.45;;
27225;SDS011;14732;51.074;3.788;2022-09-24T00:43:20;25.50;;;16.42;;
27225;SDS011;14732;51.074;3.788;2022-09-24T00:46:12;26.65;;;14.82;;
27225;SDS011;14732;51.074;3.788;2022-09-24T00:51:29;21.60;;;13.95;;
27225;SDS011;14732;51.074;3.788;2022-09-24T00:54:03;20.10;;;12.93;;
27225;SDS011;14732;51.074;3.788;2022-09-24T00:56:33;20.15;;;12.63;;
27225;SDS011;14732;51.074;3.788;2022-09-24T00:59:01;18.98;;;12.50;;
27225;SDS011;14732;51.074;3.788;2022-09-24T01:01:29;17.08;;;12.20;;
27225;SDS011;14732;51.074;3.788;2022-09-24T01:03:55;19.67;;;12.32;;
27225;SDS011;14732;51.074;3.788;2022-09-24T01:06:22;16.38;;;11.30;;
27225;SDS011;14732;51.074;3.788;2022-09-24T01:08:49;13.00;;;10.73;;
27225;SDS011;14732;51.074;3.788;2022-09-24T01:30:44;9.77;;;7.18;;
27225;SDS011;14732;51.074;3.788;2022-09-24T01:33:15;10.75;;;7.05;;
27225;SDS011;14732;51.074;3.788;2022-09-24T01:35:46;8.40;;;6.03;;
27225;SDS011;14732;51.074;3.788;2022-09-24T01:38:16;9.60;;;6.35;;
27225;SDS011;14732;51.074;3.788;2022-09-24T01:40:47;8.13;;;6.30;;
27225;SDS011;14732;51.074;3.788;2022-09-24T01:43:17;11.68;;;6.78;;
27225;SDS011;14732;51.074;3.788;2022-09-24T01:45:46;9.60;;;6.57;;
27225;SDS011;14732;51.074;3.788;2022-09-24T01:48:12;9.18;;;6.07;;
27225;SDS011;14732;51.074;3.788;2022-09-24T01:50:47;10.07;;;6.50;;
27225;SDS011;14732;51.074;3.788;2022-09-24T01:53:31;8.98;;;6.53;;
27225;SDS011;14732;51.074;3.788;2022-09-24T01:56:26;8.23;;;6.50;;
27225;SDS011;14732;51.074;3.788;2022-09-24T01:59:01;7.43;;;5.93;;
27225;SDS011;14732;51.074;3.788;2022-09-24T02:02:01;11.38;;;6.60;;
27225;SDS011;14732;51.074;3.788;2022-09-24T02:04:40;10.00;;;6.53;;
27225;SDS011;14732;51.074;3.788;2022-09-24T02:07:10;9.70;;;6.35;;
27225;SDS011;14732;51.074;3.788;2022-09-24T02:09:41;8.85;;;5.82;;
27225;SDS011;14732;51.074;3.788;2022-09-24T02:12:41;8.80;;;6.13;;
27225;SDS011;14732;51.074;3.788;2022-09-24T02:15:10;11.32;;;5.80;;
27225;SDS011;14732;51.074;3.788;2022-09-24T02:17:42;7.30;;;5.60;;
27225;SDS011;14732;51.074;3.788;2022-09-24T02:22:44;6.47;;;5.53;;
27225;SDS011;14732;51.074;3.788;2022-09-24T02:25:12;10.88;;;5.70;;
27225;SDS011;14732;51.074;3.788;2022-09-24T02:27:41;9.65;;;5.85;;
27225;SDS011;14732;51.074;3.788;2022-09-24T02:30:08;11.02;;;6.22;;
27225;SDS011;14732;51.074;3.788;2022-09-24T02:32:34;7.05;;;5.50;;
27225;SDS011;14732;51.074;3.788;2022-09-24T02:35:04;9.48;;;6.20;;
27225;SDS011;14732;51.074;3.788;2022-09-24T02:37:34;8.45;;;6.10;;
27225;SDS011;14732;51.074;3.788;2022-09-24T02:40:03;7.95;;;5.72;;
27225;SDS011;14732;51.074;3.788;2022-09-24T02:42:30;7.80;;;5.93;;
27225;SDS011;14732;51.074;3.788;2022-09-24T02:44:56;6.75;;;5.68;;
27225;SDS011;14732;51.074;3.788;2022-09-24T02:47:25;7.65;;;5.88;;
27225;SDS011;14732;51.074;3.788;2022-09-24T02:49:50;8.40;;;6.00;;
27225;SDS011;14732;51.074;3.788;2022-09-24T02:52:16;8.15;;;5.90;;
27225;SDS011;14732;51.074;3.788;2022-09-24T02:54:43;8.07;;;5.82;;
27225;SDS011;14732;51.074;3.788;2022-09-24T02:57:09;8.25;;;6.07;;
27225;SDS011;14732;51.074;3.788;2022-09-24T02:59:35;8.00;;;5.88;;
27225;SDS011;14732;51.074;3.788;2022-09-24T03:02:00;9.63;;;6.05;;
27225;SDS011;14732;51.074;3.788;2022-09-24T03:04:26;7.38;;;5.70;;
27225;SDS011;14732;51.074;3.788;2022-09-24T03:06:53;8.18;;;6.30;;
27225;SDS011;14732;51.074;3.788;2022-09-24T03:09:19;11.45;;;6.40;;
27225;SDS011;14732;51.074;3.788;2022-09-24T03:11:44;9.20;;;6.47;;
27225;SDS011;14732;51.074;3.788;2022-09-24T03:14:11;10.80;;;7.00;;
27225;SDS011;14732;51.074;3.788;2022-09-24T03:16:37;11.00;;;7.07;;
27225;SDS011;14732;51.074;3.788;2022-09-24T03:19:02;9.27;;;6.30;;
27225;SDS011;14732;51.074;3.788;2022-09-24T03:21:28;10.90;;;6.75;;
27225;SDS011;14732;51.074;3.788;2022-09-24T03:23:54;8.98;;;6.35;;
27225;SDS011;14732;51.074;3.788;2022-09-24T03:26:19;11.43;;;6.25;;
27225;SDS011;14732;51.074;3.788;2022-09-24T03:28:45;10.88;;;6.68;;
27225;SDS011;14732;51.074;3.788;2022-09-24T03:31:11;9.27;;;5.75;;
27225;SDS011;14732;51.074;3.788;2022-09-24T03:33:39;8.35;;;6.50;;
27225;SDS011;14732;51.074;3.788;2022-09-24T03:36:13;8.83;;;6.60;;
27225;SDS011;14732;51.074;3.788;2022-09-24T03:38:42;8.52;;;6.10;;
27225;SDS011;14732;51.074;3.788;2022-09-24T03:41:09;9.60;;;6.25;;
27225;SDS011;14732;51.074;3.788;2022-09-24T03:43:36;7.72;;;6.10;;
27225;SDS011;14732;51.074;3.788;2022-09-24T03:46:02;8.27;;;5.15;;
27225;SDS011;14732;51.074;3.788;2022-09-24T03:48:30;6.57;;;4.97;;
27225;SDS011;14732;51.074;3.788;2022-09-24T03:51:01;8.90;;;5.22;;
27225;SDS011;14732;51.074;3.788;2022-09-24T03:53:31;10.45;;;5.30;;
27225;SDS011;14732;51.074;3.788;2022-09-24T03:55:58;8.07;;;5.15;;
27225;SDS011;14732;51.074;3.788;2022-09-24T03:58:24;7.40;;;5.47;;
27225;SDS011;14732;51.074;3.788;2022-09-24T04:00:53;8.00;;;5.38;;
27225;SDS011;14732;51.074;3.788;2022-09-24T04:03:19;6.72;;;5.00;;
27225;SDS011;14732;51.074;3.788;2022-09-24T04:05:46;8.88;;;5.63;;
27225;SDS011;14732;51.074;3.788;2022-09-24T04:08:15;8.35;;;5.63;;
27225;SDS011;14732;51.074;3.788;2022-09-24T04:10:46;9.75;;;5.45;;
27225;SDS011;14732;51.074;3.788;2022-09-24T04:13:13;8.30;;;5.55;;
27225;SDS011;14732;51.074;3.788;2022-09-24T04:15:39;9.00;;;5.32;;
27225;SDS011;14732;51.074;3.788;2022-09-24T04:18:05;9.77;;;5.53;;
27225;SDS011;14732;51.074;3.788;2022-09-24T04:20:31;9.07;;;5.70;;
27225;SDS011;14732;51.074;3.788;2022-09-24T04:22:57;8.80;;;6.20;;
27225;SDS011;14732;51.074;3.788;2022-09-24T04:25:24;9.52;;;6.68;;
27225;SDS011;14732;51.074;3.788;2022-09-24T04:27:52;10.00;;;6.45;;
27225;SDS011;14732;51.074;3.788;2022-09-24T04:30:21;9.57;;;5.88;;
27225;SDS011;14732;51.074;3.788;2022-09-24T04:32:47;10.05;;;5.80;;
27225;SDS011;14732;51.074;3.788;2022-09-24T04:35:15;9.15;;;6.07;;
27225;SDS011;14732;51.074;3.788;2022-09-24T04:37:41;8.63;;;6.20;;
27225;SDS011;14732;51.074;3.788;2022-09-24T04:40:07;8.95;;;6.40;;
27225;SDS011;14732;51.074;3.788;2022-09-24T04:42:37;10.63;;;6.70;;
27225;SDS011;14732;51.074;3.788;2022-09-24T04:45:04;8.10;;;5.68;;
27225;SDS011;14732;51.074;3.788;2022-09-24T04:47:34;8.85;;;6.63;;
27225;SDS011;14732;51.074;3.788;2022-09-24T04:50:00;11.73;;;7.03;;
27225;SDS011;14732;51.074;3.788;2022-09-24T04:52:28;10.25;;;7.47;;
27225;SDS011;14732;51.074;3.788;2022-09-24T04:54:56;14.00;;;7.72;;
27225;SDS011;14732;51.074;3.788;2022-09-24T04:57:23;12.90;;;7.82;;
27225;SDS011;14732;51.074;3.788;2022-09-24T04:59:48;11.02;;;7.38;;
27225;SDS011;14732;51.074;3.788;2022-09-24T05:02:14;10.52;;;7.15;;
27225;SDS011;14732;51.074;3.788;2022-09-24T05:04:40;11.35;;;6.90;;
27225;SDS011;14732;51.074;3.788;2022-09-24T05:07:07;10.68;;;7.10;;
27225;SDS011;14732;51.074;3.788;2022-09-24T05:09:34;11.65;;;7.28;;
27225;SDS011;14732;51.074;3.788;2022-09-24T05:12:00;11.70;;;7.18;;
27225;SDS011;14732;51.074;3.788;2022-09-24T05:14:26;11.52;;;6.93;;
27225;SDS011;14732;51.074;3.788;2022-09-24T05:16:52;13.93;;;7.15;;
27225;SDS011;14732;51.074;3.788;2022-09-24T05:19:18;13.40;;;7.10;;
27225;SDS011;14732;51.074;3.788;2022-09-24T05:21:43;9.48;;;6.90;;
27225;SDS011;14732;51.074;3.788;2022-09-24T05:24:10;8.93;;;6.78;;
27225;SDS011;14732;51.074;3.788;2022-09-24T05:26:36;12.45;;;7.28;;
27225;SDS011;14732;51.074;3.788;2022-09-24T05:29:20;10.35;;;6.75;;
27225;SDS011;14732;51.074;3.788;2022-09-24T05:31:46;12.38;;;7.32;;
27225;SDS011;14732;51.074;3.788;2022-09-24T05:34:11;10.52;;;7.25;;
27225;SDS011;14732;51.074;3.788;2022-09-24T05:36:38;11.77;;;6.90;;
27225;SDS011;14732;51.074;3.788;2022-09-24T05:39:04;11.88;;;8.10;;
27225;SDS011;14732;51.074;3.788;2022-09-24T05:41:30;12.23;;;8.18;;
27225;SDS011;14732;51.074;3.788;2022-09-24T05:43:56;11.55;;;8.38;;
27225;SDS011;14732;51.074;3.788;2022-09-24T05:46:23;12.23;;;7.85;;
27225;SDS011;14732;51.074;3.788;2022-09-24T05:48:49;13.15;;;8.32;;
27225;SDS011;14732;51.074;3.788;2022-09-24T05:51:15;12.20;;;7.88;;
27225;SDS011;14732;51.074;3.788;2022-09-24T05:53:40;10.75;;;8.25;;
27225;SDS011;14732;51.074;3.788;2022-09-24T05:56:06;13.68;;;9.07;;
27225;SDS011;14732;51.074;3.788;2022-09-24T05:58:34;13.63;;;8.73;;
27225;SDS011;14732;51.074;3.788;2022-09-24T06:00:59;18.30;;;7.80;;
27225;SDS011;14732;51.074;3.788;2022-09-24T06:03:28;16.33;;;8.45;;
27225;SDS011;14732;51.074;3.788;2022-09-24T06:05:54;11.57;;;8.48;;
27225;SDS011;14732;51.074;3.788;2022-09-24T06:08:26;15.50;;;8.77;;
27225;SDS011;14732;51.074;3.788;2022-09-24T06:11:00;14.85;;;8.70;;
27225;SDS011;14732;51.074;3.788;2022-09-24T06:13:29;12.32;;;8.25;;
27225;SDS011;14732;51.074;3.788;2022-09-24T06:16:00;13.20;;;8.23;;
27225;SDS011;14732;51.074;3.788;2022-09-24T06:18:29;10.73;;;7.60;;
27225;SDS011;14732;51.074;3.788;2022-09-24T06:20:59;15.02;;;8.05;;
27225;SDS011;14732;51.074;3.788;2022-09-24T06:23:29;9.93;;;7.30;;
27225;SDS011;14732;51.074;3.788;2022-09-24T06:25:56;11.50;;;6.90;;
27225;SDS011;14732;51.074;3.788;2022-09-24T06:28:22;13.98;;;7.35;;
27225;SDS011;14732;51.074;3.788;2022-09-24T06:30:49;9.27;;;6.97;;
27225;SDS011;14732;51.074;3.788;2022-09-24T06:33:15;12.20;;;7.43;;
27225;SDS011;14732;51.074;3.788;2022-09-24T06:35:41;10.32;;;7.20;;
27225;SDS011;14732;51.074;3.788;2022-09-24T06:38:15;10.45;;;7.55;;
27225;SDS011;14732;51.074;3.788;2022-09-24T06:40:42;10.23;;;7.82;;
27225;SDS011;14732;51.074;3.788;2022-09-24T06:43:09;10.70;;;7.45;;
27225;SDS011;14732;51.074;3.788;2022-09-24T06:45:36;11.48;;;7.78;;
27225;SDS011;14732;51.074;3.788;2022-09-24T06:48:02;11.32;;;8.02;;
27225;SDS011;14732;51.074;3.788;2022-09-24T06:50:30;12.77;;;8.50;;
27225;SDS011;14732;51.074;3.788;2022-09-24T06:52:57;11.10;;;7.80;;
27225;SDS011;14732;51.074;3.788;2022-09-24T06:55:22;12.02;;;7.43;;
27225;SDS011;14732;51.074;3.788;2022-09-24T06:57:48;10.77;;;7.18;;
27225;SDS011;14732;51.074;3.788;2022-09-24T07:00:14;13.75;;;8.52;;
27225;SDS011;14732;51.074;3.788;2022-09-24T07:02:40;12.55;;;8.50;;
27225;SDS011;14732;51.074;3.788;2022-09-24T07:05:06;12.27;;;8.43;;
27225;SDS011;14732;51.074;3.788;2022-09-24T07:07:33;10.88;;;8.00;;
27225;SDS011;14732;51.074;3.788;2022-09-24T07:10:04;11.73;;;8.35;;
27225;SDS011;14732;51.074;3.788;2022-09-24T07:12:32;10.52;;;7.72;;
27225;SDS011;14732;51.074;3.788;2022-09-24T07:14:59;16.27;;;8.80;;
27225;SDS011;14732;51.074;3.788;2022-09-24T07:17:25;12.73;;;8.52;;
27225;SDS011;14732;51.074;3.788;2022-09-24T07:19:52;13.55;;;8.73;;
27225;SDS011;14732;51.074;3.788;2022-09-24T07:22:18;14.02;;;9.07;;
27225;SDS011;14732;51.074;3.788;2022-09-24T07:24:45;16.83;;;9.77;;
27225;SDS011;14732;51.074;3.788;2022-09-24T07:27:11;14.48;;;9.25;;
27225;SDS011;14732;51.074;3.788;2022-09-24T07:29:37;15.77;;;9.60;;
27225;SDS011;14732;51.074;3.788;2022-09-24T07:32:03;16.15;;;10.50;;
27225;SDS011;14732;51.074;3.788;2022-09-24T07:34:29;15.40;;;10.45;;
27225;SDS011;14732;51.074;3.788;2022-09-24T07:36:55;15.05;;;9.88;;
27225;SDS011;14732;51.074;3.788;2022-09-24T07:39:25;15.85;;;10.80;;
27225;SDS011;14732;51.074;3.788;2022-09-24T07:41:51;18.95;;;11.13;;
27225;SDS011;14732;51.074;3.788;2022-09-24T07:44:17;15.60;;;10.40;;
27225;SDS011;14732;51.074;3.788;2022-09-24T07:46:53;17.80;;;11.63;;
27225;SDS011;14732;51.074;3.788;2022-09-24T07:49:20;18.15;;;11.75;;
27225;SDS011;14732;51.074;3.788;2022-09-24T07:51:46;17.15;;;11.68;;
27225;SDS011;14732;51.074;3.788;2022-09-24T07:54:11;16.77;;;11.93;;
27225;SDS011;14732;51.074;3.788;2022-09-24T07:56:37;18.05;;;12.27;;
27225;SDS011;14732;51.074;3.788;2022-09-24T07:59:03;17.27;;;11.48;;
27225;SDS011;14732;51.074;3.788;2022-09-24T08:01:35;19.52;;;13.32;;
27225;SDS011;14732;51.074;3.788;2022-09-24T08:04:01;20.33;;;13.23;;
27225;SDS011;14732;51.074;3.788;2022-09-24T08:06:28;21.90;;;12.32;;
27225;SDS011;14732;51.074;3.788;2022-09-24T08:08:57;19.25;;;12.80;;
27225;SDS011;14732;51.074;3.788;2022-09-24T08:11:23;23.15;;;14.13;;
27225;SDS011;14732;51.074;3.788;2022-09-24T08:13:49;19.38;;;13.70;;
27225;SDS011;14732;51.074;3.788;2022-09-24T08:16:15;20.25;;;13.65;;
27225;SDS011;14732;51.074;3.788;2022-09-24T08:18:41;19.02;;;13.50;;
27225;SDS011;14732;51.074;3.788;2022-09-24T08:21:08;19.92;;;13.80;;
27225;SDS011;14732;51.074;3.788;2022-09-24T08:23:36;21.48;;;14.23;;
27225;SDS011;14732;51.074;3.788;2022-09-24T08:26:03;18.40;;;13.80;;
27225;SDS011;14732;51.074;3.788;2022-09-24T08:28:29;23.17;;;14.32;;
27225;SDS011;14732;51.074;3.788;2022-09-24T08:30:59;18.48;;;13.98;;
27225;SDS011;14732;51.074;3.788;2022-09-24T08:33:26;22.60;;;15.20;;
27225;SDS011;14732;51.074;3.788;2022-09-24T08:35:53;20.85;;;14.85;;
27225;SDS011;14732;51.074;3.788;2022-09-24T08:38:18;23.23;;;16.15;;
27225;SDS011;14732;51.074;3.788;2022-09-24T08:40:53;21.83;;;15.13;;
27225;SDS011;14732;51.074;3.788;2022-09-24T08:46:36;21.42;;;15.80;;
27225;SDS011;14732;51.074;3.788;2022-09-24T08:49:27;21.63;;;16.35;;
27225;SDS011;14732;51.074;3.788;2022-09-24T08:54:43;22.55;;;15.93;;
27225;SDS011;14732;51.074;3.788;2022-09-24T08:57:11;21.55;;;16.17;;
27225;SDS011;14732;51.074;3.788;2022-09-24T08:59:40;20.83;;;15.27;;
27225;SDS011;14732;51.074;3.788;2022-09-24T09:05:20;23.40;;;15.80;;
27225;SDS011;14732;51.074;3.788;2022-09-24T09:07:56;22.40;;;16.77;;
27225;SDS011;14732;51.074;3.788;2022-09-24T09:10:43;25.38;;;17.52;;
27225;SDS011;14732;51.074;3.788;2022-09-24T09:13:14;26.40;;;18.50;;
27225;SDS011;14732;51.074;3.788;2022-09-24T09:15:48;25.98;;;18.17;;
27225;SDS011;14732;51.074;3.788;2022-09-24T09:18:19;26.02;;;17.55;;
27225;SDS011;14732;51.074;3.788;2022-09-24T09:20:53;23.38;;;17.98;;
27225;SDS011;14732;51.074;3.788;2022-09-24T09:23:31;25.83;;;18.42;;
27225;SDS011;14732;51.074;3.788;2022-09-24T09:26:07;25.02;;;17.20;;
27225;SDS011;14732;51.074;3.788;2022-09-24T09:28:35;27.83;;;19.73;;
27225;SDS011;14732;51.074;3.788;2022-09-24T09:31:07;39.28;;;27.33;;
27225;SDS011;14732;51.074;3.788;2022-09-24T09:42:25;24.95;;;17.75;;
27225;SDS011;14732;51.074;3.788;2022-09-24T09:48:01;21.27;;;12.95;;
27225;SDS011;14732;51.074;3.788;2022-09-24T09:50:30;16.13;;;12.35;;
27225;SDS011;14732;51.074;3.788;2022-09-24T09:53:04;16.25;;;11.18;;
27225;SDS011;14732;51.074;3.788;2022-09-24T09:55:34;14.77;;;10.23;;
27225;SDS011;14732;51.074;3.788;2022-09-24T09:58:16;17.70;;;10.57;;
27225;SDS011;14732;51.074;3.788;2022-09-24T10:00:44;12.23;;;7.38;;
27225;SDS011;14732;51.074;3.788;2022-09-24T10:06:24;11.30;;;6.95;;
27225;SDS011;14732;51.074;3.788;2022-09-24T10:08:52;10.68;;;6.53;;
27225;SDS011;14732;51.074;3.788;2022-09-24T10:11:18;7.97;;;6.13;;
27225;SDS011;14732;51.074;3.788;2022-09-24T10:13:46;6.88;;;5.57;;
27225;SDS011;14732;51.074;3.788;2022-09-24T10:16:25;7.25;;;5.20;;
27225;SDS011;14732;51.074;3.788;2022-09-24T10:18:53;5.47;;;4.07;;
27225;SDS011;14732;51.074;3.788;2022-09-24T10:21:28;10.05;;;3.53;;
27225;SDS011;14732;51.074;3.788;2022-09-24T10:23:59;8.60;;;3.45;;
27225;SDS011;14732;51.074;3.788;2022-09-24T10:26:34;5.22;;;2.78;;
27225;SDS011;14732;51.074;3.788;2022-09-24T10:29:01;6.07;;;2.85;;
27225;SDS011;14732;51.074;3.788;2022-09-24T10:31:47;7.85;;;2.97;;
27225;SDS011;14732;51.074;3.788;2022-09-24T10:34:26;7.65;;;2.97;;
27225;SDS011;14732;51.074;3.788;2022-09-24T10:37:03;5.90;;;3.05;;
27225;SDS011;14732;51.074;3.788;2022-09-24T10:39:37;7.18;;;3.45;;
27225;SDS011;14732;51.074;3.788;2022-09-24T10:42:03;5.05;;;3.30;;
27225;SDS011;14732;51.074;3.788;2022-09-24T10:44:33;4.15;;;2.47;;
27225;SDS011;14732;51.074;3.788;2022-09-24T10:55:13;6.35;;;1.70;;
27225;SDS011;14732;51.074;3.788;2022-09-24T11:00:19;6.07;;;1.13;;
27225;SDS011;14732;51.074;3.788;2022-09-24T11:08:26;4.43;;;1.70;;
27225;SDS011;14732;51.074;3.788;2022-09-24T11:36:07;5.68;;;1.55;;
27225;SDS011;14732;51.074;3.788;2022-09-24T11:39:03;5.88;;;1.60;;
27225;SDS011;14732;51.074;3.788;2022-09-24T11:47:33;5.88;;;1.40;;
27225;SDS011;14732;51.074;3.788;2022-09-24T11:58:28;4.73;;;1.33;;
27225;SDS011;14732;51.074;3.788;2022-09-24T12:01:29;6.18;;;1.73;;
27225;SDS011;14732;51.074;3.788;2022-09-24T12:06:59;4.53;;;1.37;;
27225;SDS011;14732;51.074;3.788;2022-09-24T12:09:32;6.53;;;1.67;;
27225;SDS011;14732;51.074;3.788;2022-09-24T12:12:05;5.38;;;1.65;;
27225;SDS011;14732;51.074;3.788;2022-09-24T12:14:43;7.03;;;1.67;;
27225;SDS011;14732;51.074;3.788;2022-09-24T12:17:13;6.20;;;1.80;;
27225;SDS011;14732;51.074;3.788;2022-09-24T12:19:57;9.02;;;1.73;;
27225;SDS011;14732;51.074;3.788;2022-09-24T12:22:26;6.65;;;1.70;;
27225;SDS011;14732;51.074;3.788;2022-09-24T12:24:55;7.43;;;2.13;;
27225;SDS011;14732;51.074;3.788;2022-09-24T12:27:34;5.03;;;2.28;;
27225;SDS011;14732;51.074;3.788;2022-09-24T12:35:44;8.18;;;2.40;;
27225;SDS011;14732;51.074;3.788;2022-09-24T12:38:41;13.02;;;2.65;;
27225;SDS011;14732;51.074;3.788;2022-09-24T12:43:57;14.13;;;5.85;;
27225;SDS011;14732;51.074;3.788;2022-09-24T12:46:33;9.15;;;3.20;;
27225;SDS011;14732;51.074;3.788;2022-09-24T12:51:51;6.78;;;2.85;;
27225;SDS011;14732;51.074;3.788;2022-09-24T12:54:35;5.20;;;1.85;;
27225;SDS011;14732;51.074;3.788;2022-09-24T12:59:50;10.90;;;2.17;;
27225;SDS011;14732;51.074;3.788;2022-09-24T13:07:33;9.38;;;1.80;;
27225;SDS011;14732;51.074;3.788;2022-09-24T13:12:57;6.47;;;1.85;;
27225;SDS011;14732;51.074;3.788;2022-09-24T13:15:33;5.40;;;2.10;;
27225;SDS011;14732;51.074;3.788;2022-09-24T13:18:02;7.63;;;1.63;;
27225;SDS011;14732;51.074;3.788;2022-09-24T13:20:31;6.72;;;1.90;;
27225;SDS011;14732;51.074;3.788;2022-09-24T13:23:42;4.78;;;1.90;;
27225;SDS011;14732;51.074;3.788;2022-09-24T13:25:54;8.00;;;2.03;;
27225;SDS011;14732;51.074;3.788;2022-09-24T13:28:22;10.18;;;1.98;;
27225;SDS011;14732;51.074;3.788;2022-09-24T13:33:43;13.32;;;2.13;;
27225;SDS011;14732;51.074;3.788;2022-09-24T13:38:44;10.00;;;5.05;;
27225;SDS011;14732;51.074;3.788;2022-09-24T13:41:36;20.95;;;10.63;;
27225;SDS011;14732;51.074;3.788;2022-09-24T13:46:43;9.48;;;2.80;;
27225;SDS011;14732;51.074;3.788;2022-09-24T13:49:12;9.60;;;3.03;;
27225;SDS011;14732;51.074;3.788;2022-09-24T13:51:43;10.77;;;4.63;;
27225;SDS011;14732;51.074;3.788;2022-09-24T13:54:18;13.95;;;4.20;;
27225;SDS011;14732;51.074;3.788;2022-09-24T13:57:25;11.50;;;3.85;;
27225;SDS011;14732;51.074;3.788;2022-09-24T13:59:48;8.70;;;2.38;;
27225;SDS011;14732;51.074;3.788;2022-09-24T14:02:25;5.82;;;1.67;;
27225;SDS011;14732;51.074;3.788;2022-09-24T14:04:56;5.93;;;1.55;;
27225;SDS011;14732;51.074;3.788;2022-09-24T14:07:24;7.32;;;1.92;;
27225;SDS011;14732;51.074;3.788;2022-09-24T14:10:04;9.70;;;2.80;;
27225;SDS011;14732;51.074;3.788;2022-09-24T14:12:37;6.20;;;1.48;;
27225;SDS011;14732;51.074;3.788;2022-09-24T14:15:05;9.02;;;1.63;;
27225;SDS011;14732;51.074;3.788;2022-09-24T14:17:38;8.52;;;1.80;;
27225;SDS011;14732;51.074;3.788;2022-09-24T14:20:04;11.45;;;2.67;;
27225;SDS011;14732;51.074;3.788;2022-09-24T14:22:37;10.82;;;2.10;;
27225;SDS011;14732;51.074;3.788;2022-09-24T14:25:07;7.60;;;3.65;;
27225;SDS011;14732;51.074;3.788;2022-09-24T14:27:48;7.32;;;1.50;;
27225;SDS011;14732;51.074;3.788;2022-09-24T14:30:22;6.55;;;2.45;;
27225;SDS011;14732;51.074;3.788;2022-09-24T14:32:50;6.97;;;2.10;;
27225;SDS011;14732;51.074;3.788;2022-09-24T14:35:19;5.53;;;2.25;;
27225;SDS011;14732;51.074;3.788;2022-09-24T14:38:15;7.22;;;1.65;;
27225;SDS011;14732;51.074;3.788;2022-09-24T14:40:47;9.05;;;1.80;;
27225;SDS011;14732;51.074;3.788;2022-09-24T14:45:59;8.65;;;2.10;;
27225;SDS011;14732;51.074;3.788;2022-09-24T14:48:30;7.13;;;1.92;;
27225;SDS011;14732;51.074;3.788;2022-09-24T14:50:58;6.38;;;2.97;;
27225;SDS011;14732;51.074;3.788;2022-09-24T14:55:54;8.85;;;1.98;;
27225;SDS011;14732;51.074;3.788;2022-09-24T14:58:22;9.90;;;2.03;;
27225;SDS011;14732;51.074;3.788;2022-09-24T15:00:49;7.53;;;2.40;;
27225;SDS011;14732;51.074;3.788;2022-09-24T15:03:19;7.00;;;2.00;;
27225;SDS011;14732;51.074;3.788;2022-09-24T15:13:42;7.60;;;1.75;;
27225;SDS011;14732;51.074;3.788;2022-09-24T15:16:19;7.18;;;1.70;;
27225;SDS011;14732;51.074;3.788;2022-09-24T15:19:12;7.10;;;1.80;;
27225;SDS011;14732;51.074;3.788;2022-09-24T15:21:39;8.15;;;1.98;;
27225;SDS011;14732;51.074;3.788;2022-09-24T15:24:05;8.40;;;2.08;;
27225;SDS011;14732;51.074;3.788;2022-09-24T15:26:32;8.05;;;2.05;;
27225;SDS011;14732;51.074;3.788;2022-09-24T15:29:02;8.93;;;1.73;;
27225;SDS011;14732;51.074;3.788;2022-09-24T15:31:28;8.13;;;1.77;;
27225;SDS011;14732;51.074;3.788;2022-09-24T15:33:54;4.22;;;1.50;;
27225;SDS011;14732;51.074;3.788;2022-09-24T15:36:22;10.15;;;2.03;;
27225;SDS011;14732;51.074;3.788;2022-09-24T15:38:49;8.57;;;1.90;;
27225;SDS011;14732;51.074;3.788;2022-09-24T15:41:16;6.07;;;1.60;;
27225;SDS011;14732;51.074;3.788;2022-09-24T15:43:43;8.90;;;2.63;;
27225;SDS011;14732;51.074;3.788;2022-09-24T15:46:09;9.05;;;2.67;;
27225;SDS011;14732;51.074;3.788;2022-09-24T15:48:34;6.30;;;1.88;;
27225;SDS011;14732;51.074;3.788;2022-09-24T15:51:00;5.72;;;1.88;;
27225;SDS011;14732;51.074;3.788;2022-09-24T15:53:27;10.65;;;3.10;;
27225;SDS011;14732;51.074;3.788;2022-09-24T15:55:56;8.90;;;4.15;;
27225;SDS011;14732;51.074;3.788;2022-09-24T15:58:24;9.77;;;2.20;;
27225;SDS011;14732;51.074;3.788;2022-09-24T16:00:50;10.10;;;2.88;;
27225;SDS011;14732;51.074;3.788;2022-09-24T16:03:17;8.15;;;2.58;;
27225;SDS011;14732;51.074;3.788;2022-09-24T16:05:49;10.27;;;3.10;;
27225;SDS011;14732;51.074;3.788;2022-09-24T16:08:14;13.45;;;7.53;;
27225;SDS011;14732;51.074;3.788;2022-09-24T16:10:40;15.80;;;7.53;;
27225;SDS011;14732;51.074;3.788;2022-09-24T16:13:07;8.38;;;6.03;;
27225;SDS011;14732;51.074;3.788;2022-09-24T16:15:34;9.80;;;2.70;;
27225;SDS011;14732;51.074;3.788;2022-09-24T16:18:00;11.43;;;2.70;;
27225;SDS011;14732;51.074;3.788;2022-09-24T16:20:26;10.00;;;3.08;;
27225;SDS011;14732;51.074;3.788;2022-09-24T16:22:51;6.68;;;2.00;;
27225;SDS011;14732;51.074;3.788;2022-09-24T16:25:17;16.17;;;4.63;;
27225;SDS011;14732;51.074;3.788;2022-09-24T16:27:43;10.48;;;3.13;;
27225;SDS011;14732;51.074;3.788;2022-09-24T16:30:09;11.75;;;3.30;;
27225;SDS011;14732;51.074;3.788;2022-09-24T16:32:35;6.68;;;1.60;;
27225;SDS011;14732;51.074;3.788;2022-09-24T16:35:00;7.45;;;1.67;;
27225;SDS011;14732;51.074;3.788;2022-09-24T16:37:26;6.15;;;1.85;;
27225;SDS011;14732;51.074;3.788;2022-09-24T16:39:52;4.47;;;1.70;;
27225;SDS011;14732;51.074;3.788;2022-09-24T16:42:19;10.55;;;1.67;;
27225;SDS011;14732;51.074;3.788;2022-09-24T16:44:44;13.80;;;2.40;;
27225;SDS011;14732;51.074;3.788;2022-09-24T16:47:10;10.65;;;2.40;;
27225;SDS011;14732;51.074;3.788;2022-09-24T16:49:40;10.07;;;2.10;;
27225;SDS011;14732;51.074;3.788;2022-09-24T16:52:06;8.35;;;1.75;;
27225;SDS011;14732;51.074;3.788;2022-09-24T16:54:31;8.07;;;2.08;;
27225;SDS011;14732;51.074;3.788;2022-09-24T16:56:57;7.00;;;2.35;;
27225;SDS011;14732;51.074;3.788;2022-09-24T16:59:23;9.82;;;3.25;;
27225;SDS011;14732;51.074;3.788;2022-09-24T17:01:48;4.53;;;1.70;;
27225;SDS011;14732;51.074;3.788;2022-09-24T17:04:14;6.22;;;1.90;;
27225;SDS011;14732;51.074;3.788;2022-09-24T17:06:40;10.32;;;2.03;;
27225;SDS011;14732;51.074;3.788;2022-09-24T17:09:09;8.93;;;1.93;;
27225;SDS011;14732;51.074;3.788;2022-09-24T17:11:54;4.78;;;1.60;;
27225;SDS011;14732;51.074;3.788;2022-09-24T17:14:22;12.32;;;1.85;;
27225;SDS011;14732;51.074;3.788;2022-09-24T17:16:48;6.55;;;1.55;;
27225;SDS011;14732;51.074;3.788;2022-09-24T17:19:14;10.02;;;1.70;;
27225;SDS011;14732;51.074;3.788;2022-09-24T17:21:41;8.32;;;1.30;;
27225;SDS011;14732;51.074;3.788;2022-09-24T17:24:10;8.45;;;1.65;;